Time;durP1;ratioP1;P1;durP2;ratioP2;P2;SDS_P1;SDS_P2;PMS_P1;PMS_P2;Temp;Humidity;BMP_temperature;BMP_pressure;BME280_temperature;BME280_humidity;BME280_pressure;Samples;Min_cycle;Max_cycle;Signal;HPM_P1;HPM_P2
2024/03/28 00:00:12;;;;;;;12.20;5.25;;;;;;;11.15;84.80;92349.88;522006;28;929;-74
2024/03/28 00:00:27;;;;;;;13.70;5.88;;;;;;;11.14;85.07;92351.19;521998;28;745;-74
2024/03/28 00:00:43;;;;;;;14.40;5.63;;;;;;;11.16;85.13;92356.88;521794;28;828;-74
2024/03/28 00:00:59;;;;;;;13.27;4.88;;;;;;;11.18;85.08;92345.97;521838;28;830;-74
2024/03/28 00:01:15;;;;;;;13.20;4.90;;;;;;;11.17;84.77;92360.34;521834;28;946;-74
2024/03/28 00:01:30;;;;;;;15.50;5.60;;;;;;;11.11;85.20;92354.38;521805;28;757;-74
2024/03/28 00:01:46;;;;;;;13.90;5.28;;;;;;;11.05;85.61;92346.38;521788;28;868;-74
2024/03/28 00:02:01;;;;;;;11.65;4.80;;;;;;;11.09;85.66;92351.47;521827;28;761;-74
2024/03/28 00:02:17;;;;;;;10.77;5.00;;;;;;;11.14;85.70;92353.94;521772;28;737;-74
2024/03/28 00:02:32;;;;;;;11.52;4.70;;;;;;;11.18;85.38;92348.72;521656;28;927;-74
2024/03/28 00:02:48;;;;;;;12.93;4.90;;;;;;;11.21;85.16;92355.13;521881;28;872;-74
2024/03/28 00:03:03;;;;;;;12.90;5.40;;;;;;;11.25;85.04;92352.66;521883;28;776;-74
2024/03/28 00:03:19;;;;;;;13.73;5.47;;;;;;;11.26;84.99;92357.59;521942;28;883;-74
2024/03/28 00:03:35;;;;;;;12.95;5.30;;;;;;;11.29;84.96;92348.16;522001;28;848;-74
2024/03/28 00:03:50;;;;;;;11.68;5.22;;;;;;;11.33;84.73;92342.19;521899;28;851;-74
2024/03/28 00:04:06;;;;;;;12.33;4.57;;;;;;;11.26;84.71;92345.84;521874;28;883;-74
2024/03/28 00:04:22;;;;;;;10.90;4.93;;;;;;;11.24;84.50;92349.16;521954;28;884;-74
2024/03/28 00:04:37;;;;;;;10.23;5.80;;;;;;;11.25;84.42;92344.38;521953;28;784;-74
2024/03/28 00:04:53;;;;;;;11.57;5.40;;;;;;;11.23;84.64;92335.94;521941;28;749;-74
2024/03/28 00:05:09;;;;;;;12.33;5.20;;;;;;;11.26;84.68;92345.84;521795;28;895;-74
2024/03/28 00:05:24;;;;;;;11.73;5.22;;;;;;;11.26;84.60;92352.06;521967;28;828;-74
2024/03/28 00:05:40;;;;;;;12.55;5.10;;;;;;;11.28;84.64;92346.69;521971;28;892;-74
2024/03/28 00:05:56;;;;;;;16.63;5.43;;;;;;;11.31;84.62;92333.75;521814;28;1967;-74
2024/03/28 00:06:13;;;;;;;16.52;5.60;;;;;;;11.31;84.22;92345.53;521929;28;879;-74
2024/03/28 00:06:28;;;;;;;12.52;5.35;;;;;;;11.26;84.15;92341.03;521900;28;823;-74
2024/03/28 00:06:44;;;;;;;12.82;5.28;;;;;;;11.24;84.52;92348.47;521891;28;820;-74
2024/03/28 00:06:59;;;;;;;14.10;5.33;;;;;;;11.25;84.19;92347.88;521926;28;1066;-74
2024/03/28 00:07:15;;;;;;;15.82;5.30;;;;;;;11.27;84.18;92352.81;521939;28;855;-74
2024/03/28 00:07:30;;;;;;;15.93;5.03;;;;;;;11.27;84.27;92350.78;521802;28;738;-74
2024/03/28 00:07:46;;;;;;;15.25;5.78;;;;;;;11.29;84.31;92355.72;521953;28;813;-74
2024/03/28 00:08:02;;;;;;;15.57;5.85;;;;;;;11.31;84.13;92353.09;521927;28;784;-74
2024/03/28 00:08:17;;;;;;;14.83;5.03;;;;;;;11.31;83.82;92347.56;521957;28;845;-74
2024/03/28 00:08:33;;;;;;;15.13;5.05;;;;;;;11.32;84.09;92349.03;521921;28;767;-74
2024/03/28 00:08:48;;;;;;;13.00;5.27;;;;;;;11.35;83.82;92347.88;521921;28;864;-74
2024/03/28 00:09:04;;;;;;;11.90;5.10;;;;;;;11.37;83.63;92345.25;521974;28;768;-74
2024/03/28 00:09:20;;;;;;;11.93;5.03;;;;;;;11.24;83.54;92329.81;521794;28;809;-74
2024/03/28 00:09:35;;;;;;;13.18;5.15;;;;;;;11.31;83.82;92344.81;521960;28;836;-74
2024/03/28 00:09:50;;;;;;;16.30;5.30;;;;;;;11.29;83.71;92345.41;521936;28;867;-73
2024/03/28 00:10:06;;;;;;;15.35;5.07;;;;;;;11.32;83.50;92349.03;521928;28;844;-74
2024/03/28 00:10:22;;;;;;;13.00;5.03;;;;;;;11.31;83.29;92345.53;521962;28;1485;-74
2024/03/28 00:10:37;;;;;;;14.95;5.43;;;;;;;11.29;83.39;92348.16;521863;28;757;-74
2024/03/28 00:10:53;;;;;;;18.20;5.77;;;;;;;11.28;83.56;92343.94;521932;28;769;-74
2024/03/28 00:11:08;;;;;;;17.75;5.90;;;;;;;11.33;83.40;92337.41;521945;28;801;-74
2024/03/28 00:11:24;;;;;;;15.90;5.93;;;;;;;11.31;83.16;92342.78;521934;28;808;-74
2024/03/28 00:11:39;;;;;;;13.53;5.63;;;;;;;11.34;83.28;92341.63;521885;28;1052;-74
2024/03/28 00:11:55;;;;;;;12.53;5.30;;;;;;;11.33;83.27;92345.69;521952;28;808;-74
2024/03/28 00:12:10;;;;;;;13.63;5.00;;;;;;;11.35;83.33;92351.34;521833;28;813;-74
2024/03/28 00:12:26;;;;;;;16.40;4.75;;;;;;;11.37;83.29;92348.75;521806;28;836;-74
2024/03/28 00:12:43;;;;;;;15.63;4.80;;;;;;;11.40;83.15;92344.09;521933;28;824;-74
2024/03/28 00:12:58;;;;;;;11.93;4.65;;;;;;;11.43;83.02;92348.47;521929;28;858;-74
2024/03/28 00:13:14;;;;;;;13.10;4.83;;;;;;;11.46;82.69;92344.53;521995;28;852;-74
2024/03/28 00:13:29;;;;;;;16.00;4.88;;;;;;;11.47;82.51;92336.97;521799;28;694;-74
2024/03/28 00:13:44;;;;;;;15.87;5.10;;;;;;;11.47;82.24;92343.22;521946;28;784;-74
2024/03/28 00:14:00;;;;;;;14.77;5.43;;;;;;;11.49;82.50;92343.38;522037;28;871;-74
2024/03/28 00:14:15;;;;;;;13.57;5.28;;;;;;;11.47;82.33;92339.72;521927;28;888;-74
2024/03/28 00:14:32;;;;;;;16.33;5.63;;;;;;;11.39;82.27;92348.19;521891;28;761;-74
2024/03/28 00:14:47;;;;;;;21.60;5.85;;;;;;;11.36;82.50;92339.00;521918;28;926;-75
2024/03/28 00:15:03;;;;;;;17.55;5.13;;;;;;;11.37;82.68;92334.94;521761;28;827;-75
2024/03/28 00:15:18;;;;;;;13.35;4.75;;;;;;;11.37;82.50;92334.94;521797;28;808;-74
2024/03/28 00:15:34;;;;;;;15.43;4.97;;;;;;;11.31;82.70;92337.25;521811;28;823;-75
2024/03/28 00:15:59;;;;;;;14.73;4.57;;;;;;;11.33;82.42;92350.47;521693;28;899;-74
2024/03/28 00:16:14;;;;;;;12.77;4.72;;;;;;;11.18;82.34;92320.38;521758;28;875;-74
2024/03/28 00:16:30;;;;;;;14.15;4.97;;;;;;;11.36;82.52;92338.28;521715;28;868;-74
2024/03/28 00:16:46;;;;;;;15.87;4.67;;;;;;;11.36;82.45;92341.78;521766;28;812;-74
2024/03/28 00:17:02;;;;;;;13.13;4.05;;;;;;;11.41;82.29;92345.56;521885;28;1706;-74
2024/03/28 00:17:17;;;;;;;10.80;3.97;;;;;;;11.47;81.88;92348.03;521848;28;1622;-74
2024/03/28 00:17:33;;;;;;;12.02;4.63;;;;;;;11.51;81.74;92338.00;521749;28;840;-74
2024/03/28 00:17:48;;;;;;;12.50;4.90;;;;;;;11.55;81.54;92334.78;521837;28;796;-74
2024/03/28 00:18:05;;;;;;;12.27;4.40;;;;;;;11.57;81.78;92338.44;521916;28;812;-76
2024/03/28 00:18:20;;;;;;;12.25;4.47;;;;;;;11.55;81.31;92332.75;521911;28;1704;-74
2024/03/28 00:18:36;;;;;;;12.47;4.57;;;;;;;11.58;81.56;92337.13;521852;28;840;-74
2024/03/28 00:18:51;;;;;;;15.50;4.85;;;;;;;11.61;81.35;92346.31;521954;28;832;-74
2024/03/28 00:19:08;;;;;;;16.83;4.80;;;;;;;11.42;81.05;92314.56;521788;28;912;-74
2024/03/28 00:19:24;;;;;;;16.65;4.57;;;;;;;11.65;81.26;92344.53;521910;28;945;-74
2024/03/28 00:19:39;;;;;;;14.50;4.67;;;;;;;11.67;80.79;92350.25;521935;28;777;-74
2024/03/28 00:19:54;;;;;;;12.45;4.63;;;;;;;11.70;80.81;92342.81;521964;28;848;-74
2024/03/28 00:20:10;;;;;;;12.77;4.63;;;;;;;11.63;80.77;92332.63;521872;28;815;-75
2024/03/28 00:20:26;;;;;;;14.80;4.90;;;;;;;11.60;80.83;92334.50;521774;28;887;-74
2024/03/28 00:20:41;;;;;;;13.93;5.30;;;;;;;11.58;80.60;92330.88;521971;28;830;-74
2024/03/28 00:21:02;;;;;;;11.95;4.68;;;;;;;11.61;80.88;92333.19;521857;28;796;-74
2024/03/28 00:21:17;;;;;;;13.23;4.85;;;;;;;11.62;80.62;92331.88;521921;28;804;-74
2024/03/28 00:21:36;;;;;;;13.05;4.75;;;;;;;11.63;80.74;92333.31;521763;28;839;-74
2024/03/28 00:21:51;;;;;;;13.88;4.72;;;;;;;11.63;80.56;92332.63;521826;28;832;-74
2024/03/28 00:22:07;;;;;;;15.10;5.32;;;;;;;11.62;80.50;92331.16;521848;28;997;-74
2024/03/28 00:22:22;;;;;;;13.30;5.20;;;;;;;11.62;80.50;92329.13;521823;28;846;-74
2024/03/28 00:22:38;;;;;;;11.98;5.40;;;;;;;11.62;80.70;92333.91;521829;28;780;-74
2024/03/28 00:22:53;;;;;;;10.97;5.50;;;;;;;11.64;80.51;92336.81;521856;28;820;-74
2024/03/28 00:23:09;;;;;;;9.95;5.15;;;;;;;11.62;80.47;92326.34;521791;28;748;-74
2024/03/28 00:23:25;;;;;;;13.43;5.37;;;;;;;11.66;80.67;92331.44;521920;28;772;-74
2024/03/28 00:23:40;;;;;;;21.90;5.65;;;;;;;11.67;80.78;92330.91;521918;28;825;-74
2024/03/28 00:23:55;;;;;;;19.53;5.20;;;;;;;11.70;80.65;92326.22;521872;28;839;-74
2024/03/28 00:24:11;;;;;;;13.43;5.00;;;;;;;11.51;80.05;92295.81;521917;28;760;-74
2024/03/28 00:24:26;;;;;;;14.47;5.27;;;;;;;11.69;80.20;92324.78;521859;28;831;-74
2024/03/28 00:24:42;;;;;;;15.37;5.20;;;;;;;11.50;79.98;92308.19;521933;28;899;-74
2024/03/28 00:24:58;;;;;;;14.40;4.75;;;;;;;11.69;79.95;92331.03;521863;28;812;-74
2024/03/28 00:25:13;;;;;;;13.67;4.80;;;;;;;11.71;80.32;92333.22;521916;28;812;-74
2024/03/28 00:25:30;;;;;;;14.50;4.88;;;;;;;11.73;80.26;92338.91;521958;28;760;-74
2024/03/28 00:25:51;;;;;;;13.85;4.88;;;;;;;11.75;79.98;92333.50;521882;28;836;-75
2024/03/28 00:26:08;;;;;;;15.90;4.97;;;;;;;11.75;79.88;92328.72;521903;28;926;-74
2024/03/28 00:26:23;;;;;;;17.90;4.88;;;;;;;11.71;79.63;92322.91;521927;28;898;-74
2024/03/28 00:26:39;;;;;;;17.37;4.87;;;;;;;11.69;80.09;92342.09;521885;28;796;-74
2024/03/28 00:26:54;;;;;;;15.15;4.95;;;;;;;11.70;80.05;92331.75;521941;28;908;-74
2024/03/28 00:27:10;;;;;;;12.60;4.80;;;;;;;11.60;80.04;92319.94;521891;28;752;-74
2024/03/28 00:27:25;;;;;;;12.52;4.85;;;;;;;11.70;80.25;92337.28;521757;28;867;-74
2024/03/28 00:27:41;;;;;;;15.97;5.10;;;;;;;11.70;80.03;92331.75;521779;28;860;-74
2024/03/28 00:28:02;;;;;;;16.50;5.20;;;;;;;11.74;79.71;92320.97;521827;28;780;-74
2024/03/28 00:28:18;;;;;;;16.75;4.97;;;;;;;11.76;79.84;92321.16;521918;28;812;-74
2024/03/28 00:28:33;;;;;;;16.83;4.93;;;;;;;11.77;79.65;92323.31;521863;28;780;-74
2024/03/28 00:28:49;;;;;;;13.60;4.77;;;;;;;11.80;79.86;92327.66;521792;28;906;-74
2024/03/28 00:29:04;;;;;;;13.68;4.93;;;;;;;11.81;79.48;92320.84;521903;28;914;-74
2024/03/28 00:29:20;;;;;;;14.33;5.10;;;;;;;11.84;79.67;92327.25;521873;28;796;-74
2024/03/28 00:29:35;;;;;;;13.97;4.77;;;;;;;11.82;79.47;92319.53;521897;28;901;-74
2024/03/28 00:29:51;;;;;;;15.77;4.65;;;;;;;11.84;79.43;92322.44;521886;28;800;-74
2024/03/28 00:30:06;;;;;;;18.30;5.37;;;;;;;11.83;79.34;92318.22;521772;28;915;-74
2024/03/28 00:30:22;;;;;;;16.90;5.32;;;;;;;11.80;79.28;92321.44;521863;28;812;-74
2024/03/28 00:30:38;;;;;;;14.18;4.82;;;;;;;11.80;78.93;92324.19;521864;28;868;-74
2024/03/28 00:30:53;;;;;;;13.53;4.60;;;;;;;11.78;79.22;92326.81;521893;28;776;-75
2024/03/28 00:31:09;;;;;;;14.52;4.55;;;;;;;11.80;79.13;92322.13;521998;28;834;-74
2024/03/28 00:31:25;;;;;;;15.93;4.70;;;;;;;11.83;78.94;92315.44;521824;28;887;-74
2024/03/28 00:31:40;;;;;;;15.93;5.05;;;;;;;11.87;78.88;92323.28;521931;28;816;-74
2024/03/28 00:31:56;;;;;;;17.63;5.37;;;;;;;11.90;78.87;92327.66;521892;28;785;-74
2024/03/28 00:32:11;;;;;;;15.17;4.90;;;;;;;11.93;78.64;92324.44;521856;28;847;-74
2024/03/28 00:32:27;;;;;;;15.10;4.93;;;;;;;11.94;78.42;92328.69;521860;28;998;-74
2024/03/28 00:32:47;;;;;;;13.90;4.97;;;;;;;11.96;78.27;92320.53;521846;28;843;-74
2024/03/28 00:33:03;;;;;;;13.10;4.72;;;;;;;11.95;78.50;92332.88;521782;28;887;-74
2024/03/28 00:33:18;;;;;;;14.25;4.60;;;;;;;11.69;78.20;92295.09;521953;28;780;-74
2024/03/28 00:33:34;;;;;;;12.13;4.15;;;;;;;11.93;78.14;92327.22;521875;28;839;-74
2024/03/28 00:33:49;;;;;;;10.43;4.40;;;;;;;11.95;78.39;92327.34;521827;28;1123;-74
2024/03/28 00:34:05;;;;;;;15.38;5.30;;;;;;;11.99;78.07;92324.91;521868;28;973;-74
2024/03/28 00:34:20;;;;;;;15.97;5.40;;;;;;;12.01;78.23;92321.53;521811;28;768;-74
2024/03/28 00:34:36;;;;;;;14.02;5.10;;;;;;;11.99;78.07;92327.66;521816;28;844;-74
2024/03/28 00:34:52;;;;;;;15.70;5.30;;;;;;;12.01;77.98;92332.59;521879;28;791;-74
2024/03/28 00:35:07;;;;;;;15.73;5.50;;;;;;;12.04;78.01;92321.09;521833;28;931;-74
2024/03/28 00:35:23;;;;;;;16.65;5.38;;;;;;;12.06;77.84;92328.81;521934;28;875;-74
2024/03/28 00:35:42;;;;;;;16.03;5.13;;;;;;;12.06;77.83;92318.47;521751;28;761;-74
2024/03/28 00:35:57;;;;;;;13.07;4.68;;;;;;;12.07;77.79;92325.47;521925;28;891;-74
2024/03/28 00:36:13;;;;;;;15.27;4.88;;;;;;;12.01;77.76;92311.22;521877;28;801;-74
2024/03/28 00:36:28;;;;;;;14.90;5.00;;;;;;;11.86;78.26;92311.53;521816;28;741;-74
2024/03/28 00:36:44;;;;;;;15.13;4.95;;;;;;;11.80;78.68;92313.13;521925;28;850;-74
2024/03/28 00:36:59;;;;;;;15.50;5.10;;;;;;;11.79;78.59;92317.19;521729;28;840;-74
2024/03/28 00:37:15;;;;;;;13.37;5.37;;;;;;;11.80;78.73;92311.06;521876;28;816;-74
2024/03/28 00:37:30;;;;;;;11.65;5.40;;;;;;;11.84;78.92;92308.63;521844;28;831;-74
2024/03/28 00:37:45;;;;;;;12.80;5.10;;;;;;;11.87;78.60;92310.19;521784;28;832;-74
2024/03/28 00:38:01;;;;;;;15.10;4.70;;;;;;;11.90;78.49;92303.50;521870;28;1121;-74
2024/03/28 00:38:17;;;;;;;13.50;4.53;;;;;;;11.94;78.51;92316.88;521858;28;843;-74
2024/03/28 00:38:32;;;;;;;11.27;4.57;;;;;;;11.95;78.50;92323.88;521828;28;825;-74
2024/03/28 00:38:47;;;;;;;14.13;4.97;;;;;;;11.96;78.48;92320.53;521905;28;903;-74
2024/03/28 00:39:03;;;;;;;14.00;4.80;;;;;;;11.99;78.24;92315.88;521885;28;756;-74
2024/03/28 00:39:18;;;;;;;10.70;4.15;;;;;;;11.99;78.33;92308.31;521862;28;785;-74
2024/03/28 00:39:34;;;;;;;8.90;4.07;;;;;;;12.01;78.15;92316.75;521806;28;983;-74
2024/03/28 00:39:49;;;;;;;10.85;4.45;;;;;;;12.01;78.10;92324.31;521801;28;760;-74
2024/03/28 00:40:05;;;;;;;12.57;4.83;;;;;;;12.02;78.07;92329.25;521880;28;937;-74
2024/03/28 00:40:21;;;;;;;13.60;4.85;;;;;;;12.00;78.18;92328.38;521864;28;820;-74
2024/03/28 00:40:37;;;;;;;13.40;5.00;;;;;;;12.01;77.91;92321.53;521823;28;1068;-74
2024/03/28 00:40:54;;;;;;;10.50;4.78;;;;;;;11.97;78.09;92316.47;521880;28;911;-74
2024/03/28 00:41:10;;;;;;;12.35;4.65;;;;;;;11.96;77.85;92315.00;521855;28;792;-74
2024/03/28 00:41:25;;;;;;;13.87;4.90;;;;;;;11.99;77.95;92321.41;521843;28;911;-74
2024/03/28 00:41:40;;;;;;;14.52;4.78;;;;;;;12.01;78.15;92318.78;521884;28;796;-74
2024/03/28 00:41:56;;;;;;;14.73;4.70;;;;;;;12.03;78.02;92324.44;521828;28;788;-74
2024/03/28 00:42:11;;;;;;;16.38;5.35;;;;;;;12.06;77.63;92324.00;521818;28;879;-74
2024/03/28 00:42:27;;;;;;;15.03;5.00;;;;;;;12.05;77.47;92325.31;521859;28;765;-74
2024/03/28 00:42:42;;;;;;;15.00;4.97;;;;;;;12.04;77.59;92312.09;521815;28;898;-74
2024/03/28 00:42:58;;;;;;;14.07;5.07;;;;;;;12.03;77.44;92314.13;521535;28;1386;-74
2024/03/28 00:43:14;;;;;;;12.68;4.60;;;;;;;11.97;77.81;92318.50;521823;28;772;-74
2024/03/28 00:43:29;;;;;;;12.63;4.53;;;;;;;11.83;77.79;92287.06;521605;28;871;-73
2024/03/28 00:43:45;;;;;;;11.03;4.13;;;;;;;11.89;77.99;92296.50;519595;28;1403;-74
2024/03/28 00:44:00;;;;;;;14.48;4.40;;;;;;;11.85;78.06;92292.72;519664;28;903;-74
2024/03/28 00:44:16;;;;;;;15.90;4.83;;;;;;;11.85;78.31;92303.78;519680;28;793;-74
2024/03/28 00:44:31;;;;;;;12.10;4.70;;;;;;;11.86;78.27;92294.94;519660;28;808;-74
2024/03/28 00:44:46;;;;;;;11.57;4.50;;;;;;;11.88;78.46;92297.84;519559;28;1125;-74
2024/03/28 00:45:02;;;;;;;13.93;4.57;;;;;;;11.89;78.30;92304.81;519659;28;934;-74
2024/03/28 00:45:18;;;;;;;15.82;4.93;;;;;;;11.90;78.17;92305.53;519640;28;844;-73
2024/03/28 00:45:33;;;;;;;12.50;4.78;;;;;;;11.94;78.07;92300.28;519698;28;938;-74
2024/03/28 00:45:50;;;;;;;12.83;4.80;;;;;;;11.70;78.15;92265.41;519756;28;844;-74
2024/03/28 00:46:05;;;;;;;14.82;4.97;;;;;;;11.92;78.16;92306.41;519853;28;931;-74
2024/03/28 00:46:20;;;;;;;11.77;4.70;;;;;;;11.94;78.24;92312.09;519792;28;868;-74
2024/03/28 00:46:36;;;;;;;10.57;4.63;;;;;;;11.94;78.34;92308.59;519822;28;761;-74
2024/03/28 00:46:51;;;;;;;13.03;4.47;;;;;;;11.95;78.37;92304.53;519787;28;843;-74
2024/03/28 00:47:07;;;;;;;14.40;4.43;;;;;;;11.97;78.02;92307.44;519813;28;848;-74
2024/03/28 00:47:22;;;;;;;10.83;4.47;;;;;;;11.97;78.09;92302.63;519861;28;772;-75
2024/03/28 00:47:38;;;;;;;10.10;4.45;;;;;;;12.00;78.13;92309.00;519706;28;836;-74
2024/03/28 00:47:53;;;;;;;10.90;4.27;;;;;;;11.97;77.91;92305.41;519719;28;765;-74
2024/03/28 00:48:09;;;;;;;13.97;4.37;;;;;;;11.93;78.20;92305.09;521574;28;1157;-74
2024/03/28 00:48:25;;;;;;;14.32;4.80;;;;;;;11.92;78.07;92300.88;521883;28;883;-74
2024/03/28 00:48:40;;;;;;;14.40;5.03;;;;;;;11.94;78.13;92303.06;521877;28;812;-74
2024/03/28 00:48:55;;;;;;;12.37;4.70;;;;;;;11.95;78.20;92302.47;521846;28;1060;-74
2024/03/28 00:49:11;;;;;;;12.05;4.30;;;;;;;11.98;78.35;92306.09;521881;28;811;-74
2024/03/28 00:49:26;;;;;;;12.77;4.10;;;;;;;12.01;78.34;92299.41;521776;28;851;-74
2024/03/28 00:49:42;;;;;;;14.55;4.47;;;;;;;11.99;78.02;92293.75;521912;28;769;-74
2024/03/28 00:49:57;;;;;;;17.30;4.93;;;;;;;11.98;78.19;92300.56;521828;28;793;-74
2024/03/28 00:50:13;;;;;;;16.30;5.00;;;;;;;12.01;78.15;92293.88;521887;28;895;-74
2024/03/28 00:50:28;;;;;;;16.15;5.30;;;;;;;11.99;78.18;92299.28;521829;28;843;-74
2024/03/28 00:50:57;;;;;;;15.93;5.23;;;;;;;12.01;77.95;92310.47;521844;28;744;-74
2024/03/28 00:51:12;;;;;;;16.50;4.50;;;;;;;12.03;78.11;92314.13;521819;28;915;-74
2024/03/28 00:51:28;;;;;;;17.15;4.78;;;;;;;12.05;77.90;92305.22;521896;28;1030;-74
2024/03/28 00:51:47;;;;;;;17.10;4.83;;;;;;;12.06;77.65;92306.69;521935;28;878;-74
2024/03/28 00:52:02;;;;;;;15.45;4.65;;;;;;;12.05;77.64;92297.66;521840;28;877;-74
2024/03/28 00:52:18;;;;;;;11.80;4.53;;;;;;;12.00;77.73;92293.16;521728;28;860;-74
2024/03/28 00:52:33;;;;;;;11.60;4.88;;;;;;;11.97;78.11;92301.91;521802;28;915;-74
2024/03/28 00:52:48;;;;;;;16.37;5.20;;;;;;;11.88;78.31;92306.13;521835;28;812;-73
2024/03/28 00:53:04;;;;;;;17.13;4.70;;;;;;;11.86;78.44;92302.50;521756;28;891;-74
2024/03/28 00:53:20;;;;;;;16.60;5.05;;;;;;;11.88;78.67;92295.06;521860;28;797;-74
2024/03/28 00:53:35;;;;;;;14.43;4.88;;;;;;;11.79;79.02;92295.81;521803;28;847;-73
2024/03/28 00:53:51;;;;;;;16.17;4.73;;;;;;;11.81;78.79;92295.94;521787;28;903;-74
2024/03/28 00:54:06;;;;;;;16.55;4.88;;;;;;;11.81;79.04;92292.44;521903;28;815;-74
2024/03/28 00:54:21;;;;;;;12.83;4.47;;;;;;;11.80;78.86;92283.41;521775;28;1281;-74
2024/03/28 00:54:37;;;;;;;11.70;4.43;;;;;;;11.82;78.84;92285.63;521962;28;812;-74
2024/03/28 00:54:52;;;;;;;11.02;4.40;;;;;;;11.83;78.69;92282.25;521794;28;784;-74
2024/03/28 00:55:08;;;;;;;15.27;4.40;;;;;;;11.80;79.00;92277.88;521746;28;831;-74
2024/03/28 00:55:23;;;;;;;16.42;5.03;;;;;;;11.79;78.96;92297.84;521896;28;809;-74
2024/03/28 00:55:39;;;;;;;13.00;5.30;;;;;;;11.79;79.00;92292.31;521818;28;796;-74
2024/03/28 00:55:54;;;;;;;12.43;5.00;;;;;;;11.80;78.76;92288.94;521639;28;2248;-73
2024/03/28 00:56:10;;;;;;;11.98;4.97;;;;;;;11.82;79.01;92289.13;521677;28;859;-73
2024/03/28 00:56:25;;;;;;;12.07;4.93;;;;;;;11.85;78.74;92299.00;521506;28;964;-74
2024/03/28 00:56:41;;;;;;;12.63;4.75;;;;;;;11.86;78.98;92288.66;521706;28;851;-74
2024/03/28 00:56:56;;;;;;;10.20;4.33;;;;;;;11.84;78.51;92286.50;522316;28;1120;-74
2024/03/28 00:57:11;;;;;;;9.88;4.07;;;;;;;11.81;78.55;92295.94;523655;28;867;-74
2024/03/28 00:57:27;;;;;;;12.20;4.53;;;;;;;11.84;78.48;92300.31;523704;28;768;-74
2024/03/28 00:57:42;;;;;;;13.87;4.87;;;;;;;11.85;78.55;92287.94;523461;28;847;-73
2024/03/28 00:57:58;;;;;;;13.13;4.45;;;;;;;11.86;78.53;92294.19;521667;28;879;-74
2024/03/28 00:58:14;;;;;;;17.20;4.40;;;;;;;11.85;78.55;92293.47;521892;28;885;-74
2024/03/28 00:58:29;;;;;;;16.75;4.78;;;;;;;11.89;78.33;92284.75;521829;28;820;-74
2024/03/28 00:58:44;;;;;;;12.75;5.07;;;;;;;11.84;78.40;92283.72;521930;28;816;-74
2024/03/28 00:59:00;;;;;;;14.43;5.00;;;;;;;11.82;78.19;92299.44;521816;28;832;-74
2024/03/28 00:59:15;;;;;;;15.03;4.33;;;;;;;11.80;78.76;92288.94;521779;28;827;-74
2024/03/28 00:59:31;;;;;;;11.68;4.00;;;;;;;11.78;78.76;92291.56;521851;28;780;-74
2024/03/28 00:59:50;;;;;;;10.20;3.93;;;;;;;11.82;78.85;92297.41;521786;28;832;-74
2024/03/28 01:00:07;;;;;;;12.32;3.80;;;;;;;11.87;78.45;92285.31;521862;28;891;-74
2024/03/28 01:00:22;;;;;;;8.52;3.97;;;;;;;11.90;78.32;92297.97;521853;28;930;-74
2024/03/28 01:00:38;;;;;;;9.97;4.60;;;;;;;11.94;78.17;92289.22;521792;28;840;-74
2024/03/28 01:00:54;;;;;;;12.48;4.53;;;;;;;11.94;77.85;92289.22;521893;28;891;-74
2024/03/28 01:01:09;;;;;;;10.80;4.27;;;;;;;11.93;78.22;92287.78;521866;28;856;-75
2024/03/28 01:01:24;;;;;;;8.70;4.00;;;;;;;11.91;78.16;92282.13;521884;28;911;-74
2024/03/28 01:01:40;;;;;;;10.60;4.28;;;;;;;11.92;77.86;92276.00;521846;28;780;-74
2024/03/28 01:01:55;;;;;;;12.97;4.40;;;;;;;11.93;78.04;92279.50;521795;28;780;-74
2024/03/28 01:02:11;;;;;;;14.05;4.40;;;;;;;11.89;78.15;92268.84;521876;28;871;-74
2024/03/28 01:02:27;;;;;;;16.43;5.23;;;;;;;11.86;78.19;92280.38;521818;28;945;-74
2024/03/28 01:02:42;;;;;;;16.00;5.40;;;;;;;11.81;78.21;92281.38;521861;28;844;-74
2024/03/28 01:02:58;;;;;;;14.30;5.32;;;;;;;11.84;78.68;92285.75;521808;28;801;-75
2024/03/28 01:03:14;;;;;;;14.23;4.83;;;;;;;11.83;78.43;92298.84;521816;28;831;-74
2024/03/28 01:03:30;;;;;;;12.65;3.75;;;;;;;11.80;78.54;92252.28;521755;28;824;-75
2024/03/28 01:03:45;;;;;;;10.50;3.95;;;;;;;11.68;78.61;92277.03;521850;28;846;-73
2024/03/28 01:04:01;;;;;;;9.68;4.38;;;;;;;11.71;78.97;92286.22;521807;28;863;-74
2024/03/28 01:04:16;;;;;;;11.10;4.63;;;;;;;11.77;78.92;92286.63;521820;28;852;-74
2024/03/28 01:04:32;;;;;;;12.23;4.57;;;;;;;11.79;78.93;92293.03;521764;28;859;-74
2024/03/28 01:04:49;;;;;;;10.48;3.75;;;;;;;11.83;78.43;92281.53;521826;28;848;-74
2024/03/28 01:05:05;;;;;;;9.63;3.90;;;;;;;11.84;78.40;92291.28;521917;28;914;-74
2024/03/28 01:05:20;;;;;;;8.90;4.07;;;;;;;11.86;78.52;92283.13;521828;28;817;-74
2024/03/28 01:05:36;;;;;;;9.60;4.15;;;;;;;11.90;78.12;92291.72;521852;28;871;-74
2024/03/28 01:05:58;;;;;;;13.07;4.70;;;;;;;11.94;78.07;92276.13;521711;28;1914;-74
2024/03/28 01:06:14;;;;;;;15.38;4.07;;;;;;;11.93;78.11;92276.72;521749;28;911;-72
2024/03/28 01:06:29;;;;;;;11.25;3.90;;;;;;;11.92;78.07;92280.78;521751;28;906;-73
2024/03/28 01:06:45;;;;;;;8.53;3.73;;;;;;;11.95;77.96;92279.63;521879;28;788;-73
2024/03/28 01:07:00;;;;;;;10.90;3.65;;;;;;;11.94;77.79;92284.44;521783;28;856;-73
2024/03/28 01:07:16;;;;;;;14.50;4.30;;;;;;;11.95;77.91;92277.56;521839;28;828;-73
2024/03/28 01:07:31;;;;;;;12.02;4.18;;;;;;;11.95;77.89;92283.09;521781;28;1078;-73
2024/03/28 01:07:47;;;;;;;12.03;4.20;;;;;;;11.93;78.05;92279.50;521767;28;756;-73
2024/03/28 01:08:02;;;;;;;13.17;4.80;;;;;;;11.94;78.12;92284.44;521809;28;868;-71
2024/03/28 01:08:18;;;;;;;10.90;4.57;;;;;;;11.96;77.73;92281.06;521729;28;801;-74
2024/03/28 01:08:33;;;;;;;13.57;4.63;;;;;;;11.97;78.01;92263.91;521808;28;836;-73
2024/03/28 01:08:48;;;;;;;16.05;4.85;;;;;;;11.90;78.26;92291.72;521771;28;784;-73
2024/03/28 01:09:04;;;;;;;12.07;4.40;;;;;;;11.88;78.29;92281.25;521836;28;1092;-74
2024/03/28 01:09:19;;;;;;;12.15;4.00;;;;;;;11.91;78.09;92295.94;521740;28;836;-73
2024/03/28 01:09:35;;;;;;;12.67;3.70;;;;;;;11.93;78.20;92285.03;521961;28;827;-73
2024/03/28 01:09:50;;;;;;;9.80;3.77;;;;;;;11.90;78.15;92273.09;521835;28;813;-73
2024/03/28 01:10:06;;;;;;;11.00;4.28;;;;;;;11.81;78.55;92287.66;521797;28;892;-73
2024/03/28 01:10:21;;;;;;;14.05;5.10;;;;;;;11.84;78.61;92286.50;521700;28;780;-74
2024/03/28 01:10:38;;;;;;;14.20;4.63;;;;;;;11.87;78.56;92279.03;521788;28;856;-73
2024/03/28 01:10:53;;;;;;;11.25;3.75;;;;;;;11.89;78.37;92273.69;521837;28;919;-73
2024/03/28 01:11:09;;;;;;;9.95;3.83;;;;;;;11.77;78.88;92279.06;521810;28;812;-74
2024/03/28 01:11:24;;;;;;;13.05;4.38;;;;;;;11.75;78.90;92290.00;521875;28;792;-73
2024/03/28 01:11:40;;;;;;;13.53;4.53;;;;;;;11.74;79.13;92279.50;521756;28;852;-74
2024/03/28 01:11:55;;;;;;;10.63;4.27;;;;;;;11.71;79.19;92273.13;521790;28;874;-74
2024/03/28 01:12:11;;;;;;;13.77;4.65;;;;;;;11.73;78.98;92261.47;521829;28;847;-74
2024/03/28 01:12:26;;;;;;;14.50;4.50;;;;;;;11.67;79.29;92247.97;521803;28;820;-73
2024/03/28 01:12:42;;;;;;;9.30;3.97;;;;;;;11.63;79.45;92269.03;521800;28;820;-73
2024/03/28 01:12:57;;;;;;;8.53;3.90;;;;;;;11.64;79.54;92273.25;521715;28;926;-73
2024/03/28 01:13:12;;;;;;;11.05;4.25;;;;;;;11.71;79.63;92270.34;521694;28;868;-74
2024/03/28 01:13:28;;;;;;;12.77;4.37;;;;;;;11.69;79.49;92267.44;521802;28;907;-74
2024/03/28 01:13:43;;;;;;;11.10;3.90;;;;;;;11.72;79.54;92266.28;521848;28;831;-74
2024/03/28 01:13:59;;;;;;;14.07;3.90;;;;;;;11.72;79.12;92260.75;521837;28;776;-73
2024/03/28 01:14:14;;;;;;;16.43;4.43;;;;;;;11.71;79.24;92273.13;521766;28;808;-74
2024/03/28 01:14:31;;;;;;;12.85;4.53;;;;;;;11.57;79.40;92257.53;521690;28;931;-74
2024/03/28 01:14:46;;;;;;;13.45;4.40;;;;;;;11.68;79.63;92268.75;521852;28;915;-74
2024/03/28 01:15:02;;;;;;;13.50;4.60;;;;;;;11.64;79.69;92270.47;521840;28;891;-74
2024/03/28 01:15:18;;;;;;;13.80;4.77;;;;;;;11.66;79.51;92263.06;521833;28;1599;-74
2024/03/28 01:15:37;;;;;;;16.05;4.75;;;;;;;11.67;79.60;92278.38;521767;28;792;-74
2024/03/28 01:15:52;;;;;;;13.65;4.82;;;;;;;11.72;79.69;92274.56;521676;28;943;-74
2024/03/28 01:16:08;;;;;;;11.23;4.82;;;;;;;11.74;79.60;92268.44;521834;28;852;-73
2024/03/28 01:16:23;;;;;;;12.57;4.60;;;;;;;11.75;79.31;92273.41;521736;28;1075;-74